createdAt,value
2023-05-05T00:01:53.518Z,4.00
2023-05-05T00:04:25.179Z,3.63
2023-05-05T00:06:56.232Z,3.73
2023-05-05T00:09:27.033Z,5.37
2023-05-05T00:11:57.890Z,4.37
2023-05-05T00:14:28.698Z,4.67
2023-05-05T00:17:02.172Z,4.33
2023-05-05T00:19:33.057Z,3.90
2023-05-05T00:22:04.067Z,6.63
2023-05-05T00:24:34.980Z,3.93
2023-05-05T00:27:05.986Z,3.60
2023-05-05T00:29:36.852Z,4.43
2023-05-05T00:32:10.398Z,3.60
2023-05-05T00:34:43.456Z,4.27
2023-05-05T00:37:19.008Z,3.30
2023-05-05T00:39:50.928Z,4.87
2023-05-05T00:42:22.304Z,3.90
2023-05-05T00:44:54.054Z,3.47
2023-05-05T00:47:27.601Z,4.67
2023-05-05T00:49:58.802Z,3.70
2023-05-05T00:52:29.773Z,4.43
2023-05-05T00:55:01.187Z,4.53
2023-05-05T00:57:32.542Z,3.73
2023-05-05T01:00:03.936Z,3.40
2023-05-05T01:02:38.407Z,6.03
2023-05-05T01:05:10.482Z,4.40
2023-05-05T01:07:50.827Z,4.40
2023-05-05T01:10:28.329Z,4.17
2023-05-05T01:13:08.595Z,4.73
2023-05-05T01:15:44.226Z,3.70
2023-05-05T01:18:22.550Z,4.43
2023-05-05T01:21:01.725Z,3.30
2023-05-05T01:23:50.418Z,4.13
2023-05-05T01:26:51.376Z,3.87
2023-05-05T01:29:52.343Z,3.80
2023-05-05T01:32:29.846Z,4.57
2023-05-05T01:35:05.088Z,3.80
2023-05-05T01:37:46.387Z,5.70
2023-05-05T01:40:20.448Z,4.40
2023-05-05T01:42:53.404Z,4.10
2023-05-05T01:45:27.777Z,5.43
2023-05-05T01:48:03.378Z,4.80
2023-05-05T01:50:35.515Z,5.50
2023-05-05T01:53:07.456Z,6.23
2023-05-05T01:55:39.967Z,4.00
2023-05-05T01:58:13.805Z,5.17
2023-05-05T02:00:45.560Z,3.90
2023-05-05T02:03:20.180Z,4.10
2023-05-05T02:05:52.901Z,4.13
2023-05-05T02:08:24.600Z,5.67
2023-05-05T02:10:57.000Z,4.03
2023-05-05T02:13:30.061Z,4.30
2023-05-05T02:16:02.320Z,4.40
2023-05-05T02:18:36.980Z,4.10
2023-05-05T02:21:08.320Z,5.10
2023-05-05T02:23:39.279Z,5.03
2023-05-05T02:26:15.426Z,6.47
2023-05-05T02:28:54.233Z,4.10
2023-05-05T02:31:28.425Z,4.30
2023-05-05T02:34:04.200Z,4.13
2023-05-05T02:36:40.068Z,6.90
2023-05-05T02:39:16.885Z,6.60
2023-05-05T02:41:50.036Z,4.40
2023-05-05T02:44:22.692Z,4.60
2023-05-05T02:46:54.548Z,7.60
2023-05-05T02:49:28.134Z,5.87
2023-05-05T02:51:59.189Z,6.00
2023-05-05T02:54:30.975Z,4.63
2023-05-05T02:57:02.356Z,5.00
2023-05-05T02:59:40.443Z,12.73
2023-05-05T03:02:19.062Z,4.70
2023-05-05T03:04:58.031Z,7.37
2023-05-05T03:07:42.177Z,6.17
2023-05-05T03:10:17.837Z,8.10
2023-05-05T03:12:51.142Z,6.83
2023-05-05T03:15:25.096Z,6.10
2023-05-05T03:17:57.227Z,6.57
2023-05-05T03:20:31.717Z,8.63
2023-05-05T03:23:04.927Z,6.87
2023-05-05T03:25:46.011Z,7.13
2023-05-05T03:28:17.566Z,11.63
2023-05-05T03:30:48.526Z,7.90
2023-05-05T03:33:19.733Z,7.90
2023-05-05T03:35:53.198Z,8.23
2023-05-05T03:38:24.042Z,8.70
2023-05-05T03:40:54.931Z,9.60
2023-05-05T03:43:25.793Z,8.77
2023-05-05T03:45:56.654Z,10.37
2023-05-05T03:48:27.844Z,8.67
2023-05-05T03:51:01.364Z,9.40
2023-05-05T03:53:34.084Z,11.00
2023-05-05T03:56:06.446Z,11.53
2023-05-05T03:58:37.443Z,10.83
2023-05-05T04:01:08.453Z,10.30
2023-05-05T04:03:39.449Z,11.27
2023-05-05T04:06:12.914Z,12.13
2023-05-05T04:08:43.855Z,10.50
2023-05-05T04:11:14.753Z,10.93
2023-05-05T04:13:46.177Z,12.03
2023-05-05T04:16:20.369Z,15.43
2023-05-05T04:18:51.393Z,12.30
2023-05-05T04:21:24.814Z,11.83
2023-05-05T04:23:56.914Z,13.30
2023-05-05T04:26:28.131Z,12.93
2023-05-05T04:28:59.024Z,13.00
2023-05-05T04:31:30.747Z,13.00
2023-05-05T04:34:04.387Z,12.93
2023-05-05T04:36:39.129Z,15.37
2023-05-05T04:39:09.984Z,13.37
2023-05-05T04:41:40.859Z,12.00
2023-05-05T04:44:11.736Z,13.03
2023-05-05T04:46:42.679Z,11.90
2023-05-05T04:49:13.660Z,12.43
2023-05-05T04:51:50.037Z,12.83
2023-05-05T04:54:20.930Z,13.37
2023-05-05T04:56:51.904Z,15.10
2023-05-05T04:59:22.758Z,14.87
2023-05-05T05:01:53.673Z,12.03
2023-05-05T05:04:26.009Z,11.87
2023-05-05T05:07:02.620Z,12.07
2023-05-05T05:09:33.503Z,12.77
2023-05-05T05:12:06.034Z,13.27
2023-05-05T05:14:39.755Z,12.47
2023-05-05T05:17:10.618Z,12.70
2023-05-05T05:19:41.843Z,13.80
2023-05-05T05:22:15.380Z,13.87
2023-05-05T05:24:46.297Z,15.03
2023-05-05T05:27:17.153Z,14.70
2023-05-05T05:29:48.045Z,14.77
2023-05-05T05:32:18.909Z,17.00
2023-05-05T05:34:49.718Z,15.50
2023-05-05T05:37:25.609Z,15.57
2023-05-05T05:39:56.955Z,15.87
2023-05-05T05:42:28.185Z,14.40
2023-05-05T05:44:59.408Z,14.93
2023-05-05T05:47:30.514Z,17.80
2023-05-05T05:50:01.354Z,15.07
2023-05-05T05:52:36.276Z,15.67
2023-05-05T05:55:08.115Z,15.90
2023-05-05T05:57:38.931Z,16.23
2023-05-05T06:00:11.610Z,15.67
2023-05-05T06:02:42.590Z,16.93
2023-05-05T06:05:14.024Z,14.90
2023-05-05T06:07:47.427Z,15.70
2023-05-05T06:10:26.807Z,15.13
2023-05-05T06:12:59.003Z,15.53
2023-05-05T06:15:29.894Z,15.33
2023-05-05T06:18:00.791Z,15.40
2023-05-05T06:20:31.601Z,15.43
2023-05-05T06:23:04.989Z,14.43
2023-05-05T06:25:35.848Z,15.40
2023-05-05T06:28:07.371Z,15.40
2023-05-05T06:30:38.287Z,14.57
2023-05-05T06:33:09.246Z,13.60
2023-05-05T06:35:40.095Z,14.17
2023-05-05T06:38:13.488Z,16.67
2023-05-05T06:40:44.882Z,13.80
2023-05-05T06:43:15.691Z,12.73
2023-05-05T06:45:47.151Z,12.80
2023-05-05T06:48:18.231Z,12.80
2023-05-05T06:50:52.128Z,12.90
2023-05-05T06:53:25.493Z,13.13
2023-05-05T06:55:56.324Z,13.30
2023-05-05T06:58:30.014Z,11.93
2023-05-05T07:01:01.023Z,11.50
2023-05-05T07:03:34.920Z,10.70
2023-05-05T07:06:06.194Z,11.40
2023-05-05T07:08:39.542Z,12.13
2023-05-05T07:11:13.374Z,11.13
2023-05-05T07:13:44.156Z,10.50
2023-05-05T07:16:15.025Z,10.77
2023-05-05T07:18:45.948Z,10.33
2023-05-05T07:21:16.801Z,10.03
2023-05-05T07:23:50.168Z,11.17
2023-05-05T07:26:21.038Z,10.77
2023-05-05T07:28:52.115Z,10.90
2023-05-05T07:31:23.458Z,11.27
2023-05-05T07:33:54.615Z,16.30
2023-05-05T07:36:27.941Z,10.20
2023-05-05T07:39:01.417Z,14.93
2023-05-05T07:41:35.905Z,10.57
2023-05-05T07:44:09.762Z,11.73
2023-05-05T07:46:40.596Z,10.63
2023-05-05T07:49:11.462Z,11.77
2023-05-05T07:51:42.250Z,11.20
2023-05-05T07:54:16.364Z,12.07
2023-05-05T07:56:47.336Z,12.00
2023-05-05T07:59:18.321Z,11.40
2023-05-05T08:01:49.498Z,11.83
2023-05-05T08:04:22.793Z,11.60
2023-05-05T08:06:53.829Z,12.43
2023-05-05T08:09:27.499Z,12.20
2023-05-05T08:12:01.462Z,9.83
2023-05-05T08:14:32.371Z,9.23
2023-05-05T08:17:03.187Z,9.83
2023-05-05T08:19:34.083Z,12.80
2023-05-05T08:22:04.911Z,7.33
2023-05-05T08:24:38.393Z,10.40
2023-05-05T08:27:09.221Z,8.50
2023-05-05T08:29:40.060Z,6.87
2023-05-05T08:32:11.245Z,6.83
2023-05-05T08:34:42.018Z,7.40
2023-05-05T08:37:12.827Z,7.87
2023-05-05T08:39:46.388Z,8.60
2023-05-05T08:42:32.844Z,7.43
2023-05-05T08:45:09.381Z,6.97
2023-05-05T08:47:43.552Z,7.07
2023-05-05T08:50:16.014Z,6.33
2023-05-05T08:52:51.733Z,9.03
2023-05-05T08:55:27.475Z,9.93
2023-05-05T08:58:01.307Z,8.07
2023-05-05T09:00:32.614Z,6.83
2023-05-05T09:03:04.974Z,8.33
2023-05-05T09:05:36.040Z,7.37
2023-05-05T09:08:08.494Z,7.27
2023-05-05T09:10:44.880Z,7.63
2023-05-05T09:13:15.915Z,7.20
2023-05-05T09:15:46.837Z,6.23
2023-05-05T09:18:17.798Z,6.50
2023-05-05T09:20:48.846Z,6.53
2023-05-05T09:23:21.079Z,6.50
2023-05-05T09:26:08.924Z,8.00
2023-05-05T09:28:40.224Z,9.40
2023-05-05T09:31:19.954Z,8.10
2023-05-05T09:33:51.128Z,8.67
2023-05-05T09:36:21.960Z,8.67
2023-05-05T09:39:07.904Z,8.80
2023-05-05T09:41:45.357Z,7.40
2023-05-05T09:44:17.667Z,6.93
2023-05-05T09:46:55.428Z,6.17
2023-05-05T09:49:27.069Z,7.60
2023-05-05T09:51:58.222Z,4.77
2023-05-05T09:54:30.496Z,6.43
2023-05-05T09:57:06.414Z,6.57
2023-05-05T09:59:39.120Z,5.67
2023-05-05T10:02:14.410Z,6.77
2023-05-05T10:04:45.385Z,4.43
2023-05-05T10:07:26.907Z,4.03
2023-05-05T10:10:00.997Z,4.40
2023-05-05T10:12:35.152Z,5.40
2023-05-05T10:15:07.467Z,5.77
2023-05-05T10:17:43.954Z,5.57
2023-05-05T10:20:19.096Z,6.60
2023-05-05T10:22:55.158Z,4.30
2023-05-05T10:25:33.255Z,4.03
2023-05-05T10:28:09.619Z,6.17
2023-05-05T10:30:46.142Z,6.60
2023-05-05T10:35:56.713Z,5.03
2023-05-05T10:38:31.225Z,4.80
2023-05-05T10:41:03.632Z,5.50
2023-05-05T10:43:37.215Z,5.00
2023-05-05T10:46:09.136Z,6.23
2023-05-05T10:48:47.779Z,5.90
2023-05-05T10:51:39.460Z,5.83
2023-05-05T10:54:19.189Z,6.00
2023-05-05T10:56:50.819Z,5.33
2023-05-05T10:59:47.531Z,4.50
2023-05-05T11:02:26.642Z,4.57
2023-05-05T11:05:18.116Z,4.20
2023-05-05T11:07:50.340Z,4.00
2023-05-05T11:10:23.407Z,4.93
2023-05-05T11:13:24.194Z,5.27
2023-05-05T11:15:59.112Z,4.20
2023-05-05T11:18:36.405Z,4.17
2023-05-05T11:21:18.242Z,3.23
2023-05-05T11:23:53.683Z,4.30
2023-05-05T11:26:53.104Z,4.57
2023-05-05T11:29:24.002Z,3.60
2023-05-05T11:32:20.031Z,4.47
2023-05-05T11:34:54.008Z,4.60
2023-05-05T11:37:26.681Z,4.73
2023-05-05T11:40:12.753Z,7.00
2023-05-05T11:42:43.878Z,4.30
2023-05-05T11:45:32.474Z,4.43
2023-05-05T11:48:29.967Z,4.27
2023-05-05T11:51:02.496Z,4.20
2023-05-05T11:53:33.517Z,3.63
2023-05-05T11:56:19.277Z,3.40
2023-05-05T11:58:50.522Z,4.07
2023-05-05T12:01:21.394Z,4.13
2023-05-05T12:03:55.072Z,4.30
2023-05-05T12:06:26.951Z,6.33
2023-05-05T12:08:57.809Z,4.53
2023-05-05T12:11:28.653Z,4.00
2023-05-05T12:14:12.943Z,3.60
2023-05-05T12:16:43.805Z,5.00
2023-05-05T12:19:17.200Z,11.50
2023-05-05T12:21:48.762Z,3.43
2023-05-05T12:24:19.673Z,4.97
2023-05-05T12:26:50.499Z,4.20
2023-05-05T12:29:27.330Z,4.23
2023-05-05T12:32:02.555Z,3.20
2023-05-05T12:34:36.529Z,3.33
2023-05-05T12:37:07.811Z,4.57
2023-05-05T12:39:38.821Z,5.00
2023-05-05T12:42:09.961Z,4.33
2023-05-05T12:44:41.570Z,5.03
2023-05-05T12:47:12.730Z,4.57
2023-05-05T12:49:54.419Z,4.00
2023-05-05T12:52:25.426Z,6.67
2023-05-05T12:54:58.093Z,4.10
2023-05-05T12:57:29.265Z,3.30
2023-05-05T13:00:00.137Z,4.67
2023-05-05T13:02:37.122Z,3.67
2023-05-05T13:05:13.898Z,2.70
2023-05-05T13:07:54.522Z,3.77
2023-05-05T13:10:25.385Z,2.50
2023-05-05T13:12:58.611Z,4.93
2023-05-05T13:15:29.460Z,3.27
2023-05-05T13:18:03.832Z,3.13
2023-05-05T13:20:37.472Z,7.73
2023-05-05T13:23:08.340Z,3.30
2023-05-05T13:25:39.307Z,4.10
2023-05-05T13:28:10.133Z,5.23
2023-05-05T13:30:42.008Z,4.67
2023-05-05T13:33:12.864Z,6.57
2023-05-05T13:35:46.264Z,4.03
2023-05-05T13:38:17.294Z,4.80
2023-05-05T13:40:48.221Z,7.13
2023-05-05T13:43:19.680Z,5.27
2023-05-05T13:45:53.649Z,3.50
2023-05-05T13:48:24.439Z,4.13
2023-05-05T13:50:58.054Z,2.80
2023-05-05T13:53:29.042Z,2.50
2023-05-05T13:56:00.515Z,2.70
2023-05-05T13:58:31.373Z,2.53
2023-05-05T14:01:03.203Z,1.70
2023-05-05T14:03:34.151Z,2.43
2023-05-05T14:06:09.216Z,2.03
2023-05-05T14:08:40.309Z,5.83
2023-05-05T14:11:11.099Z,1.67
2023-05-05T14:13:41.978Z,1.80
2023-05-05T14:16:12.813Z,2.93
2023-05-05T14:18:43.707Z,2.10
2023-05-05T14:21:17.203Z,3.30
2023-05-05T14:23:48.320Z,3.30
2023-05-05T14:26:19.562Z,2.30
2023-05-05T14:28:50.386Z,2.40
2023-05-05T14:31:21.246Z,2.60
2023-05-05T14:33:54.971Z,2.37
2023-05-05T14:36:28.620Z,2.77
2023-05-05T14:38:59.461Z,3.43
2023-05-05T14:41:30.445Z,2.50
2023-05-05T14:44:03.907Z,2.83
2023-05-05T14:46:35.464Z,2.70
2023-05-05T14:49:06.373Z,2.80
2023-05-05T14:51:39.836Z,2.70
2023-05-05T14:54:24.264Z,4.30
2023-05-05T14:56:58.562Z,3.20
2023-05-05T14:59:29.707Z,3.47
2023-05-05T15:02:00.640Z,3.47
2023-05-05T15:04:31.735Z,7.00
2023-05-05T15:07:05.187Z,5.30
2023-05-05T15:09:36.014Z,3.90
2023-05-05T15:12:10.246Z,3.97
2023-05-05T15:14:41.186Z,3.50
2023-05-05T15:17:12.192Z,3.80
2023-05-05T15:19:43.822Z,5.93
2023-05-05T15:22:20.747Z,4.80
2023-05-05T15:24:51.620Z,4.10
2023-05-05T15:27:22.562Z,6.63
2023-05-05T15:29:53.441Z,5.60
2023-05-05T15:32:24.552Z,5.30
2023-05-05T15:34:56.435Z,5.00
2023-05-05T15:37:30.957Z,5.77
2023-05-05T15:40:02.228Z,5.27
2023-05-05T15:42:36.584Z,6.87
2023-05-05T15:45:12.210Z,6.60
2023-05-05T15:47:43.461Z,6.30
2023-05-05T15:50:14.397Z,5.63
2023-05-05T15:52:49.804Z,4.77
2023-05-05T15:55:22.699Z,5.43
2023-05-05T15:57:53.581Z,5.43
2023-05-05T16:00:25.790Z,6.87
2023-05-05T16:02:56.805Z,5.07
2023-05-05T16:05:27.746Z,5.30
2023-05-05T16:08:01.192Z,5.17
2023-05-05T16:10:32.055Z,5.23
2023-05-05T16:13:02.965Z,4.80
2023-05-05T16:15:33.950Z,6.83
2023-05-05T16:18:05.248Z,14.63
2023-05-05T16:20:36.325Z,4.97
2023-05-05T16:23:09.899Z,4.50
2023-05-05T16:25:40.864Z,5.30
2023-05-05T16:28:11.820Z,4.63
2023-05-05T16:30:43.341Z,3.73
2023-05-05T16:33:14.771Z,4.10
2023-05-05T16:35:46.735Z,4.03
2023-05-05T16:38:20.322Z,3.93
2023-05-05T16:40:51.219Z,4.23
2023-05-05T16:43:22.267Z,4.00
2023-05-05T16:45:53.158Z,5.30
2023-05-05T16:48:24.067Z,5.00
2023-05-05T16:50:55.006Z,4.70
2023-05-05T16:53:28.742Z,5.03
2023-05-05T16:55:59.616Z,3.57
2023-05-05T16:58:30.576Z,4.40
2023-05-05T17:01:02.863Z,5.27
2023-05-05T17:03:33.810Z,6.30
2023-05-05T17:06:04.785Z,6.23
2023-05-05T17:08:38.810Z,4.77
2023-05-05T17:11:11.472Z,5.60
2023-05-05T17:13:42.791Z,5.30
2023-05-05T17:16:13.835Z,5.57
2023-05-05T17:18:44.793Z,5.50
2023-05-05T17:21:15.756Z,5.00
2023-05-05T17:23:49.283Z,5.40
2023-05-05T17:26:20.235Z,5.47
2023-05-05T17:28:51.294Z,5.50
2023-05-05T17:31:22.340Z,5.47
2023-05-05T17:33:53.293Z,4.93
2023-05-05T17:36:24.273Z,5.07
2023-05-05T17:38:57.787Z,4.93
2023-05-05T17:41:28.630Z,5.50
2023-05-05T17:43:59.753Z,5.07
2023-05-05T17:46:30.916Z,5.03
2023-05-05T17:49:01.851Z,6.03
2023-05-05T17:51:33.817Z,6.30
2023-05-05T17:54:07.722Z,5.37
2023-05-05T17:56:38.716Z,5.83
2023-05-05T17:59:09.707Z,6.17
2023-05-05T18:01:40.606Z,6.30
2023-05-05T18:04:11.577Z,5.33
2023-05-05T18:06:42.492Z,6.00
2023-05-05T18:09:16.817Z,5.43
2023-05-05T18:11:47.821Z,6.33
2023-05-05T18:14:20.165Z,6.00
2023-05-05T18:16:52.497Z,7.67
2023-05-05T18:19:25.132Z,8.13
2023-05-05T18:21:57.560Z,6.23
2023-05-05T18:24:31.925Z,8.50
2023-05-05T18:27:02.875Z,8.03
2023-05-05T18:29:35.264Z,8.17
2023-05-05T18:32:07.108Z,8.13
2023-05-05T18:34:38.022Z,8.43
2023-05-05T18:37:09.063Z,8.60
2023-05-05T18:39:44.050Z,8.40
2023-05-05T18:42:15.650Z,9.00
2023-05-05T18:44:46.598Z,9.47
2023-05-05T18:47:17.512Z,9.20
2023-05-05T18:49:48.486Z,10.23
2023-05-05T18:52:19.392Z,10.13
2023-05-05T18:54:52.900Z,10.83
2023-05-05T18:57:23.805Z,10.77
2023-05-05T18:59:57.887Z,10.97
2023-05-05T19:02:28.917Z,10.43
2023-05-05T19:04:59.870Z,10.33
2023-05-05T19:07:35.434Z,11.10
2023-05-05T19:10:13.950Z,10.77
2023-05-05T19:12:44.887Z,11.43
2023-05-05T19:15:18.608Z,10.37
2023-05-05T19:17:49.669Z,12.37
2023-05-05T19:20:20.624Z,12.03
2023-05-05T19:22:52.147Z,11.07
2023-05-05T19:25:26.034Z,12.77
2023-05-05T19:27:57.031Z,11.70
2023-05-05T19:30:29.667Z,11.37
2023-05-05T19:33:03.530Z,11.33
2023-05-05T19:35:34.556Z,10.27
2023-05-05T19:38:05.451Z,11.37
2023-05-05T19:40:39.961Z,11.77
2023-05-05T19:43:12.741Z,11.90
2023-05-05T19:45:43.822Z,10.87
2023-05-05T19:48:14.774Z,11.30
2023-05-05T19:50:45.685Z,10.97
2023-05-05T19:53:16.582Z,13.70
2023-05-05T19:55:50.103Z,9.57
2023-05-05T19:58:21.157Z,10.30
2023-05-05T20:00:52.052Z,9.37
2023-05-05T20:03:23.163Z,9.33
2023-05-05T20:05:54.307Z,10.50
2023-05-05T20:08:25.742Z,10.80
2023-05-05T20:10:59.425Z,12.30
2023-05-05T20:13:30.624Z,10.83
2023-05-05T20:16:04.734Z,10.47
2023-05-05T20:18:35.911Z,9.70
2023-05-05T20:21:07.103Z,9.50
2023-05-05T20:23:38.618Z,9.00
2023-05-05T20:26:14.844Z,9.40
2023-05-05T20:28:46.146Z,10.30
2023-05-05T20:31:20.206Z,11.87
2023-05-05T20:33:51.191Z,9.57
2023-05-05T20:36:22.992Z,9.77
2023-05-05T20:38:54.052Z,10.93
2023-05-05T20:41:27.549Z,10.20
2023-05-05T20:43:58.359Z,10.90
2023-05-05T20:46:29.708Z,10.63
2023-05-05T20:49:00.812Z,9.60
2023-05-05T20:51:34.323Z,10.00
2023-05-05T20:54:05.788Z,10.97
2023-05-05T20:56:43.472Z,12.13
2023-05-05T20:59:14.301Z,11.37
2023-05-05T21:01:47.403Z,10.80
2023-05-05T21:04:18.228Z,13.67
2023-05-05T21:06:49.120Z,11.90
2023-05-05T21:09:21.509Z,12.40
2023-05-05T21:11:57.101Z,13.10
2023-05-05T21:14:29.988Z,13.10
2023-05-05T21:17:01.117Z,12.70
2023-05-05T21:19:31.992Z,13.20
2023-05-05T21:22:02.837Z,13.43
2023-05-05T21:24:36.250Z,13.87
2023-05-05T21:27:11.548Z,15.70
2023-05-05T21:29:43.695Z,13.50
2023-05-05T21:32:14.795Z,13.53
2023-05-05T21:34:45.760Z,14.37
2023-05-05T21:37:16.549Z,13.47
2023-05-05T21:39:49.559Z,15.03
2023-05-05T21:42:22.984Z,13.17
2023-05-05T21:44:53.891Z,13.43
2023-05-05T21:47:24.870Z,13.20
2023-05-05T21:49:55.848Z,16.13
2023-05-05T21:52:29.461Z,13.80
2023-05-05T21:55:00.321Z,16.07
2023-05-05T21:57:33.720Z,15.37
2023-05-05T22:00:05.752Z,14.27
2023-05-05T22:02:38.657Z,16.70
2023-05-05T22:05:10.874Z,14.20
2023-05-05T22:07:41.708Z,14.57
2023-05-05T22:10:16.669Z,15.43
2023-05-05T22:12:52.738Z,14.10
2023-05-05T22:15:25.468Z,14.47
2023-05-05T22:17:58.675Z,14.13
2023-05-05T22:20:29.710Z,15.63
2023-05-05T22:23:00.959Z,13.43
2023-05-05T22:25:31.745Z,15.70
2023-05-05T22:28:06.005Z,15.70
2023-05-05T22:30:36.884Z,16.93
2023-05-05T22:33:08.106Z,15.00
2023-05-05T22:35:40.142Z,14.03
2023-05-05T22:38:11.575Z,16.00
2023-05-05T22:40:42.544Z,16.20
2023-05-05T22:43:16.090Z,17.40
2023-05-05T22:45:47.231Z,17.53
2023-05-05T22:48:18.018Z,17.23
2023-05-05T22:50:49.152Z,19.10
2023-05-05T22:53:20.192Z,16.90
2023-05-05T22:55:51.739Z,18.00
2023-05-05T22:58:25.176Z,21.60
2023-05-05T23:00:56.054Z,20.83
2023-05-05T23:03:27.286Z,22.07
2023-05-05T23:05:58.050Z,20.57
2023-05-05T23:08:28.835Z,19.53
2023-05-05T23:10:59.648Z,18.20
2023-05-05T23:13:33.030Z,16.30
2023-05-05T23:16:04.327Z,18.30
2023-05-05T23:18:36.408Z,19.67
2023-05-05T23:21:10.545Z,21.90
2023-05-05T23:23:41.373Z,18.40
2023-05-05T23:26:12.203Z,20.00
2023-05-05T23:28:45.610Z,16.97
2023-05-05T23:31:19.188Z,18.90
2023-05-05T23:33:50.199Z,19.07
2023-05-05T23:36:21.434Z,16.43
2023-05-05T23:38:52.257Z,17.63
2023-05-05T23:41:23.073Z,17.20
2023-05-05T23:43:56.514Z,16.53
2023-05-05T23:46:27.430Z,17.33
2023-05-05T23:48:58.376Z,17.23
2023-05-05T23:51:29.850Z,16.10
2023-05-05T23:54:00.686Z,19.53
2023-05-05T23:56:31.525Z,16.77
2023-05-05T23:59:05.557Z,19.13
